This is the latest recevied weather packets stored in our database for station/object DH5WR-10. If no packets are shown the sender has not sent any weather packets the latest 10 day(s).
| Time | Temp. | Humidity | Pressure | Rain* | Wind** | Luminosity | Snow |
|---|---|---|---|---|---|---|---|
| 1777621035 | 11.11° C | 34% | 1027.3 hPa | - | - | - | - |
| 1777620134 | 11.11° C | 37% | 1027.4 hPa | - | - | - | - |
| 1777619234 | 10° C | 39% | 1027.3 hPa | - | - | - | - |
| 1777618334 | 9.44° C | 39% | 1027.3 hPa | - | - | - | - |
| 1777617434 | 10° C | 38% | 1027.2 hPa | - | - | - | - |
| 1777616534 | 9.44° C | 37% | 1027.2 hPa | - | - | - | - |
| 1777615634 | 8.89° C | 40% | 1027.1 hPa | - | - | - | - |
| 1777614734 | 10° C | 39% | 1027.1 hPa | - | - | - | - |
| 1777613833 | 7.22° C | 45% | 1027 hPa | - | - | - | - |
| 1777612947 | 5.56° C | 49% | 1026.8 hPa | - | - | - | - |
| 1777612047 | 3.89° C | 54% | 1026.7 hPa | - | - | - | - |
| 1777611147 | 3.89° C | 57% | 1026.6 hPa | - | - | - | - |
| 1777610247 | 3.33° C | 57% | 1026.5 hPa | - | - | - | - |
| 1777609347 | 2.22° C | 60% | 1026.4 hPa | - | - | - | - |
| 1777608447 | 2.78° C | 56% | 1026.3 hPa | - | - | - | - |
| 1777607547 | 2.78° C | 56% | 1026.2 hPa | - | - | - | - |
| 1777606646 | 2.78° C | 59% | 1026.3 hPa | - | - | - | - |
| 1777605746 | 2.22° C | 62% | 1026.4 hPa | - | - | - | - |
| 1777604846 | 2.78° C | 59% | 1026.5 hPa | - | - | - | - |
| 1777603946 | 2.78° C | 59% | 1026.4 hPa | - | - | - | - |
| 1777603046 | 3.33° C | 56% | 1026.3 hPa | - | - | - | - |
| 1777602146 | 3.89° C | 52% | 1026.3 hPa | - | - | - | - |
| 1777601246 | 4.44° C | 49% | 1026.2 hPa | - | - | - | - |
| 1777600345 | 4.44° C | 50% | 1026.1 hPa | - | - | - | - |
| 1777599445 | 4.44° C | 48% | 1026.2 hPa | - | - | - | - |
* Rain since midnight (hover to see other rain measurements)
** Current wind speed in m/s (hover to see current wind gust speed)